sensor_id;sensor_type;location;lat;lon;timestamp;P1;durP1;ratioP1;P2;durP2;ratioP2
3299;SDS011;1662;49.310;8.134;2023-04-01T00:00:34;3.00;;;1.53;;
3299;SDS011;1662;49.310;8.134;2023-04-01T00:02:59;5.00;;;1.80;;
3299;SDS011;1662;49.310;8.134;2023-04-01T00:05:25;5.33;;;1.47;;
3299;SDS011;1662;49.310;8.134;2023-04-01T00:07:51;2.77;;;1.70;;
3299;SDS011;1662;49.310;8.134;2023-04-01T00:10:17;2.83;;;2.63;;
3299;SDS011;1662;49.310;8.134;2023-04-01T00:12:43;4.63;;;1.70;;
3299;SDS011;1662;49.310;8.134;2023-04-01T00:15:10;2.10;;;1.53;;
3299;SDS011;1662;49.310;8.134;2023-04-01T00:17:36;6.03;;;1.47;;
3299;SDS011;1662;49.310;8.134;2023-04-01T00:20:03;4.57;;;1.73;;
3299;SDS011;1662;49.310;8.134;2023-04-01T00:22:30;2.97;;;1.77;;
3299;SDS011;1662;49.310;8.134;2023-04-01T00:24:55;2.77;;;2.00;;
3299;SDS011;1662;49.310;8.134;2023-04-01T00:27:21;1.73;;;1.33;;
3299;SDS011;1662;49.310;8.134;2023-04-01T00:29:46;2.03;;;1.30;;
3299;SDS011;1662;49.310;8.134;2023-04-01T00:32:14;3.93;;;1.70;;
3299;SDS011;1662;49.310;8.134;2023-04-01T00:34:39;3.50;;;1.67;;
3299;SDS011;1662;49.310;8.134;2023-04-01T00:37:08;4.30;;;1.60;;
3299;SDS011;1662;49.310;8.134;2023-04-01T00:39:34;1.77;;;1.67;;
3299;SDS011;1662;49.310;8.134;2023-04-01T00:42:02;4.27;;;1.60;;
3299;SDS011;1662;49.310;8.134;2023-04-01T00:44:30;3.37;;;2.10;;
3299;SDS011;1662;49.310;8.134;2023-04-01T00:47:00;3.50;;;1.63;;
3299;SDS011;1662;49.310;8.134;2023-04-01T00:49:29;1.83;;;1.60;;
3299;SDS011;1662;49.310;8.134;2023-04-01T00:51:59;3.43;;;1.40;;
3299;SDS011;1662;49.310;8.134;2023-04-01T00:54:26;2.83;;;1.33;;
3299;SDS011;1662;49.310;8.134;2023-04-01T00:57:00;5.63;;;1.70;;
3299;SDS011;1662;49.310;8.134;2023-04-01T00:59:39;5.17;;;1.33;;
3299;SDS011;1662;49.310;8.134;2023-04-01T01:02:08;5.10;;;1.63;;
3299;SDS011;1662;49.310;8.134;2023-04-01T01:04:37;3.50;;;1.80;;
3299;SDS011;1662;49.310;8.134;2023-04-01T01:15:29;2.40;;;1.57;;
3299;SDS011;1662;49.310;8.134;2023-04-01T01:37:06;6.63;;;1.70;;
3299;SDS011;1662;49.310;8.134;2023-04-01T01:39:37;3.33;;;1.73;;
3299;SDS011;1662;49.310;8.134;2023-04-01T01:42:05;2.83;;;1.73;;
3299;SDS011;1662;49.310;8.134;2023-04-01T01:44:34;1.63;;;1.30;;
3299;SDS011;1662;49.310;8.134;2023-04-01T01:47:02;2.13;;;1.40;;
3299;SDS011;1662;49.310;8.134;2023-04-01T01:49:28;1.83;;;1.70;;
3299;SDS011;1662;49.310;8.134;2023-04-01T01:51:57;2.57;;;1.50;;
3299;SDS011;1662;49.310;8.134;2023-04-01T01:54:23;2.17;;;1.20;;
3299;SDS011;1662;49.310;8.134;2023-04-01T01:56:51;6.30;;;1.80;;
3299;SDS011;1662;49.310;8.134;2023-04-01T01:59:30;3.50;;;1.67;;
3299;SDS011;1662;49.310;8.134;2023-04-01T02:01:58;2.13;;;1.50;;
3299;SDS011;1662;49.310;8.134;2023-04-01T02:04:25;2.37;;;1.30;;
3299;SDS011;1662;49.310;8.134;2023-04-01T02:06:58;1.70;;;1.30;;
3299;SDS011;1662;49.310;8.134;2023-04-01T02:09:27;1.53;;;1.20;;
3299;SDS011;1662;49.310;8.134;2023-04-01T02:12:12;1.77;;;1.37;;
3299;SDS011;1662;49.310;8.134;2023-04-01T02:14:45;2.20;;;1.40;;
3299;SDS011;1662;49.310;8.134;2023-04-01T02:17:34;1.10;;;1.00;;
3299;SDS011;1662;49.310;8.134;2023-04-01T02:20:04;3.03;;;1.37;;
3299;SDS011;1662;49.310;8.134;2023-04-01T02:22:41;1.10;;;1.00;;
3299;SDS011;1662;49.310;8.134;2023-04-01T02:25:12;3.03;;;1.40;;
3299;SDS011;1662;49.310;8.134;2023-04-01T02:27:45;5.50;;;1.43;;
3299;SDS011;1662;49.310;8.134;2023-04-01T02:30:12;2.60;;;1.33;;
3299;SDS011;1662;49.310;8.134;2023-04-01T02:32:42;2.40;;;1.37;;
3299;SDS011;1662;49.310;8.134;2023-04-01T02:35:10;1.50;;;1.30;;
3299;SDS011;1662;49.310;8.134;2023-04-01T02:37:41;1.50;;;1.40;;
3299;SDS011;1662;49.310;8.134;2023-04-01T02:40:10;3.47;;;1.40;;
3299;SDS011;1662;49.310;8.134;2023-04-01T02:42:38;1.90;;;1.40;;
3299;SDS011;1662;49.310;8.134;2023-04-01T02:45:07;1.50;;;1.30;;
3299;SDS011;1662;49.310;8.134;2023-04-01T02:47:33;3.80;;;1.47;;
3299;SDS011;1662;49.310;8.134;2023-04-01T02:49:59;2.40;;;1.33;;
3299;SDS011;1662;49.310;8.134;2023-04-01T02:52:25;2.70;;;1.50;;
3299;SDS011;1662;49.310;8.134;2023-04-01T02:54:51;3.43;;;1.17;;
3299;SDS011;1662;49.310;8.134;2023-04-01T02:57:17;3.50;;;1.40;;
3299;SDS011;1662;49.310;8.134;2023-04-01T02:59:43;1.57;;;1.13;;
3299;SDS011;1662;49.310;8.134;2023-04-01T03:02:08;3.33;;;1.67;;
3299;SDS011;1662;49.310;8.134;2023-04-01T03:04:34;3.20;;;1.70;;
3299;SDS011;1662;49.310;8.134;2023-04-01T03:07:00;1.80;;;1.53;;
3299;SDS011;1662;49.310;8.134;2023-04-01T03:09:26;2.10;;;1.10;;
3299;SDS011;1662;49.310;8.134;2023-04-01T03:11:51;2.43;;;1.13;;
3299;SDS011;1662;49.310;8.134;2023-04-01T03:14:17;6.00;;;1.27;;
3299;SDS011;1662;49.310;8.134;2023-04-01T03:16:43;2.87;;;1.37;;
3299;SDS011;1662;49.310;8.134;2023-04-01T03:19:08;4.10;;;1.37;;
3299;SDS011;1662;49.310;8.134;2023-04-01T03:21:34;3.20;;;1.53;;
3299;SDS011;1662;49.310;8.134;2023-04-01T03:23:59;4.80;;;1.47;;
3299;SDS011;1662;49.310;8.134;2023-04-01T03:26:25;2.40;;;1.17;;
3299;SDS011;1662;49.310;8.134;2023-04-01T03:28:55;3.00;;;1.50;;
3299;SDS011;1662;49.310;8.134;2023-04-01T03:31:21;2.70;;;1.53;;
3299;SDS011;1662;49.310;8.134;2023-04-01T03:33:47;2.97;;;1.33;;
3299;SDS011;1662;49.310;8.134;2023-04-01T03:36:12;2.20;;;1.40;;
3299;SDS011;1662;49.310;8.134;2023-04-01T03:38:41;1.50;;;1.20;;
3299;SDS011;1662;49.310;8.134;2023-04-01T03:41:12;3.30;;;1.43;;
3299;SDS011;1662;49.310;8.134;2023-04-01T03:43:39;1.47;;;1.33;;
3299;SDS011;1662;49.310;8.134;2023-04-01T03:46:05;2.20;;;1.30;;
3299;SDS011;1662;49.310;8.134;2023-04-01T03:48:31;2.80;;;1.10;;
3299;SDS011;1662;49.310;8.134;2023-04-01T03:50:56;1.27;;;1.17;;
3299;SDS011;1662;49.310;8.134;2023-04-01T03:53:22;2.13;;;1.10;;
3299;SDS011;1662;49.310;8.134;2023-04-01T03:55:47;4.77;;;1.47;;
3299;SDS011;1662;49.310;8.134;2023-04-01T03:58:13;5.03;;;1.47;;
3299;SDS011;1662;49.310;8.134;2023-04-01T04:00:39;1.77;;;1.43;;
3299;SDS011;1662;49.310;8.134;2023-04-01T04:03:05;2.93;;;1.43;;
3299;SDS011;1662;49.310;8.134;2023-04-01T04:05:31;5.33;;;1.70;;
3299;SDS011;1662;49.310;8.134;2023-04-01T04:07:59;3.03;;;1.50;;
3299;SDS011;1662;49.310;8.134;2023-04-01T04:10:25;2.63;;;1.80;;
3299;SDS011;1662;49.310;8.134;2023-04-01T04:12:51;1.70;;;1.10;;
3299;SDS011;1662;49.310;8.134;2023-04-01T04:15:19;1.90;;;1.40;;
3299;SDS011;1662;49.310;8.134;2023-04-01T04:17:45;2.67;;;1.50;;
3299;SDS011;1662;49.310;8.134;2023-04-01T04:20:12;1.00;;;1.00;;
3299;SDS011;1662;49.310;8.134;2023-04-01T04:22:38;1.23;;;1.13;;
3299;SDS011;1662;49.310;8.134;2023-04-01T04:25:04;3.13;;;1.40;;
3299;SDS011;1662;49.310;8.134;2023-04-01T04:27:30;2.47;;;1.50;;
3299;SDS011;1662;49.310;8.134;2023-04-01T04:29:55;5.27;;;1.40;;
3299;SDS011;1662;49.310;8.134;2023-04-01T04:32:21;3.70;;;1.50;;
3299;SDS011;1662;49.310;8.134;2023-04-01T04:34:46;6.70;;;1.57;;
3299;SDS011;1662;49.310;8.134;2023-04-01T04:37:14;2.60;;;1.10;;
3299;SDS011;1662;49.310;8.134;2023-04-01T04:39:40;1.40;;;1.30;;
3299;SDS011;1662;49.310;8.134;2023-04-01T04:42:05;2.37;;;1.43;;
3299;SDS011;1662;49.310;8.134;2023-04-01T04:44:31;2.97;;;1.53;;
3299;SDS011;1662;49.310;8.134;2023-04-01T04:46:57;3.90;;;1.63;;
3299;SDS011;1662;49.310;8.134;2023-04-01T04:49:23;1.20;;;1.10;;
3299;SDS011;1662;49.310;8.134;2023-04-01T04:51:48;4.50;;;1.30;;
3299;SDS011;1662;49.310;8.134;2023-04-01T04:54:14;3.47;;;1.20;;
3299;SDS011;1662;49.310;8.134;2023-04-01T04:56:40;1.93;;;1.30;;
3299;SDS011;1662;49.310;8.134;2023-04-01T04:59:05;3.73;;;2.13;;
3299;SDS011;1662;49.310;8.134;2023-04-01T05:01:32;1.60;;;1.50;;
3299;SDS011;1662;49.310;8.134;2023-04-01T05:03:58;3.73;;;1.33;;
3299;SDS011;1662;49.310;8.134;2023-04-01T05:06:26;3.70;;;1.30;;
3299;SDS011;1662;49.310;8.134;2023-04-01T05:08:54;1.30;;;1.20;;
3299;SDS011;1662;49.310;8.134;2023-04-01T05:11:21;3.43;;;1.27;;
3299;SDS011;1662;49.310;8.134;2023-04-01T05:13:46;3.27;;;1.30;;
3299;SDS011;1662;49.310;8.134;2023-04-01T05:16:13;3.33;;;1.67;;
3299;SDS011;1662;49.310;8.134;2023-04-01T05:18:41;2.07;;;1.40;;
3299;SDS011;1662;49.310;8.134;2023-04-01T05:21:07;1.37;;;1.37;;
3299;SDS011;1662;49.310;8.134;2023-04-01T05:23:34;7.87;;;1.70;;
3299;SDS011;1662;49.310;8.134;2023-04-01T05:26:04;3.70;;;1.33;;
3299;SDS011;1662;49.310;8.134;2023-04-01T05:28:30;5.10;;;1.40;;
3299;SDS011;1662;49.310;8.134;2023-04-01T05:30:57;2.63;;;1.20;;
3299;SDS011;1662;49.310;8.134;2023-04-01T05:33:25;4.10;;;1.33;;
3299;SDS011;1662;49.310;8.134;2023-04-01T05:35:51;1.03;;;1.00;;
3299;SDS011;1662;49.310;8.134;2023-04-01T05:38:16;7.30;;;1.50;;
3299;SDS011;1662;49.310;8.134;2023-04-01T05:40:42;2.43;;;1.10;;
3299;SDS011;1662;49.310;8.134;2023-04-01T05:43:07;1.23;;;0.90;;
3299;SDS011;1662;49.310;8.134;2023-04-01T05:45:33;2.20;;;1.50;;
3299;SDS011;1662;49.310;8.134;2023-04-01T05:47:59;1.73;;;1.03;;
3299;SDS011;1662;49.310;8.134;2023-04-01T05:50:25;5.17;;;1.23;;
3299;SDS011;1662;49.310;8.134;2023-04-01T05:52:51;9.30;;;1.57;;
3299;SDS011;1662;49.310;8.134;2023-04-01T05:55:16;2.00;;;1.07;;
3299;SDS011;1662;49.310;8.134;2023-04-01T05:57:44;1.70;;;1.00;;
3299;SDS011;1662;49.310;8.134;2023-04-01T06:00:10;3.60;;;1.83;;
3299;SDS011;1662;49.310;8.134;2023-04-01T06:02:36;2.03;;;1.00;;
3299;SDS011;1662;49.310;8.134;2023-04-01T06:05:11;0.90;;;0.90;;
3299;SDS011;1662;49.310;8.134;2023-04-01T06:07:45;0.93;;;0.90;;
3299;SDS011;1662;49.310;8.134;2023-04-01T06:10:15;2.90;;;1.10;;
3299;SDS011;1662;49.310;8.134;2023-04-01T06:18:29;0.80;;;0.80;;
3299;SDS011;1662;49.310;8.134;2023-04-01T06:26:39;3.50;;;1.90;;
3299;SDS011;1662;49.310;8.134;2023-04-01T06:29:42;0.90;;;0.90;;
3299;SDS011;1662;49.310;8.134;2023-04-01T06:37:52;2.20;;;1.00;;
3299;SDS011;1662;49.310;8.134;2023-04-01T06:43:41;2.17;;;1.97;;
3299;SDS011;1662;49.310;8.134;2023-04-01T06:49:11;2.13;;;1.87;;
3299;SDS011;1662;49.310;8.134;2023-04-01T06:51:45;1.63;;;0.90;;
3299;SDS011;1662;49.310;8.134;2023-04-01T06:54:26;1.10;;;0.90;;
3299;SDS011;1662;49.310;8.134;2023-04-01T06:57:20;2.03;;;1.10;;
3299;SDS011;1662;49.310;8.134;2023-04-01T07:00:04;1.43;;;0.80;;
3299;SDS011;1662;49.310;8.134;2023-04-01T07:05:48;1.43;;;1.20;;
3299;SDS011;1662;49.310;8.134;2023-04-01T07:08:23;1.23;;;1.00;;
3299;SDS011;1662;49.310;8.134;2023-04-01T07:13:36;3.47;;;1.30;;
3299;SDS011;1662;49.310;8.134;2023-04-01T07:18:54;1.07;;;0.97;;
3299;SDS011;1662;49.310;8.134;2023-04-01T07:21:46;1.00;;;1.00;;
3299;SDS011;1662;49.310;8.134;2023-04-01T07:27:10;1.10;;;0.67;;
3299;SDS011;1662;49.310;8.134;2023-04-01T07:29:37;0.70;;;0.70;;
3299;SDS011;1662;49.310;8.134;2023-04-01T07:37:11;0.80;;;0.80;;
3299;SDS011;1662;49.310;8.134;2023-04-01T07:47:37;1.47;;;1.37;;
3299;SDS011;1662;49.310;8.134;2023-04-01T07:50:29;1.07;;;1.07;;
3299;SDS011;1662;49.310;8.134;2023-04-01T07:58:25;1.30;;;1.20;;
3299;SDS011;1662;49.310;8.134;2023-04-01T08:08:58;0.80;;;0.80;;
3299;SDS011;1662;49.310;8.134;2023-04-01T08:11:44;0.80;;;0.77;;
3299;SDS011;1662;49.310;8.134;2023-04-01T08:23:27;1.53;;;0.80;;
3299;SDS011;1662;49.310;8.134;2023-04-01T08:25:44;1.00;;;1.00;;
3299;SDS011;1662;49.310;8.134;2023-04-01T08:30:58;1.00;;;0.80;;
3299;SDS011;1662;49.310;8.134;2023-04-01T08:33:29;0.70;;;0.70;;
3299;SDS011;1662;49.310;8.134;2023-04-01T08:38:40;0.90;;;0.90;;
3299;SDS011;1662;49.310;8.134;2023-04-01T08:44:18;0.90;;;0.90;;
3299;SDS011;1662;49.310;8.134;2023-04-01T08:49:56;1.17;;;0.90;;
3299;SDS011;1662;49.310;8.134;2023-04-01T08:52:53;0.80;;;0.80;;
3299;SDS011;1662;49.310;8.134;2023-04-01T09:06:20;0.90;;;0.70;;
3299;SDS011;1662;49.310;8.134;2023-04-01T09:31:12;0.87;;;0.87;;
3299;SDS011;1662;49.310;8.134;2023-04-01T09:38:57;0.70;;;0.70;;
3299;SDS011;1662;49.310;8.134;2023-04-01T09:41:28;1.10;;;1.00;;
3299;SDS011;1662;49.310;8.134;2023-04-01T09:52:43;0.77;;;0.77;;
3299;SDS011;1662;49.310;8.134;2023-04-01T10:06:51;1.50;;;0.80;;
3299;SDS011;1662;49.310;8.134;2023-04-01T10:26:36;0.90;;;0.90;;
3299;SDS011;1662;49.310;8.134;2023-04-01T10:35:04;1.00;;;0.90;;
3299;SDS011;1662;49.310;8.134;2023-04-01T10:40:44;0.80;;;0.80;;
3299;SDS011;1662;49.310;8.134;2023-04-01T10:43:28;0.63;;;0.63;;
3299;SDS011;1662;49.310;8.134;2023-04-01T11:00:32;0.70;;;0.70;;
3299;SDS011;1662;49.310;8.134;2023-04-01T11:03:19;1.20;;;1.07;;
3299;SDS011;1662;49.310;8.134;2023-04-01T11:06:12;0.70;;;0.70;;
3299;SDS011;1662;49.310;8.134;2023-04-01T11:11:38;0.80;;;0.80;;
3299;SDS011;1662;49.310;8.134;2023-04-01T11:25:23;0.83;;;0.83;;
3299;SDS011;1662;49.310;8.134;2023-04-01T11:44:35;0.87;;;0.87;;
3299;SDS011;1662;49.310;8.134;2023-04-01T11:50:01;0.70;;;0.70;;
3299;SDS011;1662;49.310;8.134;2023-04-01T11:52:55;0.70;;;0.70;;
3299;SDS011;1662;49.310;8.134;2023-04-01T11:55:31;1.47;;;0.70;;
3299;SDS011;1662;49.310;8.134;2023-04-01T12:09:25;1.03;;;0.97;;
3299;SDS011;1662;49.310;8.134;2023-04-01T12:20:30;0.70;;;0.70;;
3299;SDS011;1662;49.310;8.134;2023-04-01T12:37:27;0.80;;;0.80;;
3299;SDS011;1662;49.310;8.134;2023-04-01T12:45:59;1.00;;;1.00;;
3299;SDS011;1662;49.310;8.134;2023-04-01T12:53:57;0.93;;;0.93;;
3299;SDS011;1662;49.310;8.134;2023-04-01T13:02:11;0.80;;;0.80;;
3299;SDS011;1662;49.310;8.134;2023-04-01T13:05:01;1.03;;;1.03;;
3299;SDS011;1662;49.310;8.134;2023-04-01T13:10:31;0.80;;;0.80;;
3299;SDS011;1662;49.310;8.134;2023-04-01T13:21:29;1.00;;;1.00;;
3299;SDS011;1662;49.310;8.134;2023-04-01T13:24:31;1.00;;;1.00;;
3299;SDS011;1662;49.310;8.134;2023-04-01T13:27:09;3.07;;;1.50;;
3299;SDS011;1662;49.310;8.134;2023-04-01T13:33:15;0.93;;;0.93;;
3299;SDS011;1662;49.310;8.134;2023-04-01T13:35:57;1.17;;;1.10;;
3299;SDS011;1662;49.310;8.134;2023-04-01T13:44:20;0.97;;;0.97;;
3299;SDS011;1662;49.310;8.134;2023-04-01T14:08:36;0.90;;;0.90;;
3299;SDS011;1662;49.310;8.134;2023-04-01T14:11:24;1.10;;;1.00;;
3299;SDS011;1662;49.310;8.134;2023-04-01T14:14:08;1.27;;;0.90;;
3299;SDS011;1662;49.310;8.134;2023-04-01T14:19:45;1.07;;;0.90;;
3299;SDS011;1662;49.310;8.134;2023-04-01T14:22:42;0.93;;;0.83;;
3299;SDS011;1662;49.310;8.134;2023-04-01T14:34:04;1.63;;;0.90;;
3299;SDS011;1662;49.310;8.134;2023-04-01T14:42:06;1.30;;;1.10;;
3299;SDS011;1662;49.310;8.134;2023-04-01T14:50:24;0.80;;;0.80;;
3299;SDS011;1662;49.310;8.134;2023-04-01T14:53:09;1.37;;;1.27;;
3299;SDS011;1662;49.310;8.134;2023-04-01T14:55:50;1.00;;;1.00;;
3299;SDS011;1662;49.310;8.134;2023-04-01T15:07:15;0.90;;;0.90;;
3299;SDS011;1662;49.310;8.134;2023-04-01T15:12:35;0.70;;;0.70;;
3299;SDS011;1662;49.310;8.134;2023-04-01T15:18:33;1.43;;;1.00;;
3299;SDS011;1662;49.310;8.134;2023-04-01T15:32:02;1.30;;;1.00;;
3299;SDS011;1662;49.310;8.134;2023-04-01T15:51:47;0.90;;;0.90;;
3299;SDS011;1662;49.310;8.134;2023-04-01T15:57:16;1.53;;;0.90;;
3299;SDS011;1662;49.310;8.134;2023-04-01T16:19:31;1.00;;;1.00;;
3299;SDS011;1662;49.310;8.134;2023-04-01T16:22:34;0.80;;;0.80;;
3299;SDS011;1662;49.310;8.134;2023-04-01T16:28:09;0.80;;;0.80;;
3299;SDS011;1662;49.310;8.134;2023-04-01T16:30:48;0.80;;;0.80;;
3299;SDS011;1662;49.310;8.134;2023-04-01T16:33:47;0.93;;;0.93;;
3299;SDS011;1662;49.310;8.134;2023-04-01T16:36:28;2.40;;;1.30;;
3299;SDS011;1662;49.310;8.134;2023-04-01T16:39:18;1.00;;;1.00;;
3299;SDS011;1662;49.310;8.134;2023-04-01T16:41:52;1.00;;;1.00;;
3299;SDS011;1662;49.310;8.134;2023-04-01T16:44:24;1.00;;;1.00;;
3299;SDS011;1662;49.310;8.134;2023-04-01T16:46:56;0.83;;;0.83;;
3299;SDS011;1662;49.310;8.134;2023-04-01T16:49:41;0.80;;;0.80;;
3299;SDS011;1662;49.310;8.134;2023-04-01T16:59:44;0.90;;;0.90;;
3299;SDS011;1662;49.310;8.134;2023-04-01T17:02:16;1.10;;;1.00;;
3299;SDS011;1662;49.310;8.134;2023-04-01T17:04:48;2.30;;;1.00;;
3299;SDS011;1662;49.310;8.134;2023-04-01T17:07:38;1.20;;;1.10;;
3299;SDS011;1662;49.310;8.134;2023-04-01T17:13:19;1.30;;;1.20;;
3299;SDS011;1662;49.310;8.134;2023-04-01T17:18:23;0.70;;;0.70;;
3299;SDS011;1662;49.310;8.134;2023-04-01T17:20:59;0.80;;;0.80;;
3299;SDS011;1662;49.310;8.134;2023-04-01T17:35:10;1.53;;;1.23;;
3299;SDS011;1662;49.310;8.134;2023-04-01T17:45:49;1.60;;;1.20;;
3299;SDS011;1662;49.310;8.134;2023-04-01T17:50:58;1.00;;;1.00;;
3299;SDS011;1662;49.310;8.134;2023-04-01T17:59:38;3.43;;;1.37;;
3299;SDS011;1662;49.310;8.134;2023-04-01T18:13:51;2.60;;;1.20;;
3299;SDS011;1662;49.310;8.134;2023-04-01T18:21:54;2.63;;;1.03;;
3299;SDS011;1662;49.310;8.134;2023-04-01T18:24:32;0.90;;;0.90;;
3299;SDS011;1662;49.310;8.134;2023-04-01T18:27:22;0.93;;;0.93;;
3299;SDS011;1662;49.310;8.134;2023-04-01T18:38:03;1.43;;;1.43;;
3299;SDS011;1662;49.310;8.134;2023-04-01T18:40:38;1.20;;;1.20;;
3299;SDS011;1662;49.310;8.134;2023-04-01T18:48:40;1.70;;;1.70;;
3299;SDS011;1662;49.310;8.134;2023-04-01T18:51:11;2.13;;;1.50;;
3299;SDS011;1662;49.310;8.134;2023-04-01T18:59:01;1.53;;;1.53;;
3299;SDS011;1662;49.310;8.134;2023-04-01T19:05:02;1.77;;;1.67;;
3299;SDS011;1662;49.310;8.134;2023-04-01T19:18:22;1.60;;;1.57;;
3299;SDS011;1662;49.310;8.134;2023-04-01T19:21:08;1.73;;;1.73;;
3299;SDS011;1662;49.310;8.134;2023-04-01T19:24:06;4.30;;;2.47;;
3299;SDS011;1662;49.310;8.134;2023-04-01T19:32:49;1.90;;;1.80;;
3299;SDS011;1662;49.310;8.134;2023-04-01T19:56:37;2.33;;;2.23;;
3299;SDS011;1662;49.310;8.134;2023-04-01T20:04:34;3.27;;;3.17;;
3299;SDS011;1662;49.310;8.134;2023-04-01T20:07:10;2.93;;;2.83;;
3299;SDS011;1662;49.310;8.134;2023-04-01T20:15:20;2.57;;;2.47;;
3299;SDS011;1662;49.310;8.134;2023-04-01T20:17:59;2.83;;;2.73;;
3299;SDS011;1662;49.310;8.134;2023-04-01T20:20:28;2.60;;;2.50;;
3299;SDS011;1662;49.310;8.134;2023-04-01T20:23:18;2.17;;;2.07;;
3299;SDS011;1662;49.310;8.134;2023-04-01T20:26:04;3.40;;;3.20;;
3299;SDS011;1662;49.310;8.134;2023-04-01T20:28:43;4.10;;;3.80;;
3299;SDS011;1662;49.310;8.134;2023-04-01T20:31:27;4.50;;;4.07;;
3299;SDS011;1662;49.310;8.134;2023-04-01T20:36:58;2.33;;;2.23;;
3299;SDS011;1662;49.310;8.134;2023-04-01T20:39:34;2.30;;;2.10;;
3299;SDS011;1662;49.310;8.134;2023-04-01T20:42:27;3.43;;;3.17;;
3299;SDS011;1662;49.310;8.134;2023-04-01T20:45:31;3.33;;;2.60;;
3299;SDS011;1662;49.310;8.134;2023-04-01T20:51:08;2.40;;;2.30;;
3299;SDS011;1662;49.310;8.134;2023-04-01T21:07:41;2.13;;;1.90;;
3299;SDS011;1662;49.310;8.134;2023-04-01T21:16:01;1.60;;;1.60;;
3299;SDS011;1662;49.310;8.134;2023-04-01T21:51:41;1.77;;;1.77;;
3299;SDS011;1662;49.310;8.134;2023-04-01T21:54:25;2.30;;;2.20;;
3299;SDS011;1662;49.310;8.134;2023-04-01T22:08:39;2.00;;;1.90;;
3299;SDS011;1662;49.310;8.134;2023-04-01T22:11:21;1.87;;;1.77;;
3299;SDS011;1662;49.310;8.134;2023-04-01T22:14:45;2.53;;;2.20;;
3299;SDS011;1662;49.310;8.134;2023-04-01T22:25:22;2.20;;;2.10;;
3299;SDS011;1662;49.310;8.134;2023-04-01T22:28:08;2.00;;;1.90;;
3299;SDS011;1662;49.310;8.134;2023-04-01T22:30:51;2.33;;;1.50;;
3299;SDS011;1662;49.310;8.134;2023-04-01T22:33:23;2.30;;;1.87;;
3299;SDS011;1662;49.310;8.134;2023-04-01T22:44:25;1.73;;;1.57;;
3299;SDS011;1662;49.310;8.134;2023-04-01T22:49:35;2.00;;;1.83;;
3299;SDS011;1662;49.310;8.134;2023-04-01T22:52:22;1.57;;;1.57;;
3299;SDS011;1662;49.310;8.134;2023-04-01T22:54:54;2.03;;;1.80;;
3299;SDS011;1662;49.310;8.134;2023-04-01T23:00:27;2.17;;;2.00;;
3299;SDS011;1662;49.310;8.134;2023-04-01T23:03:01;2.00;;;1.87;;
3299;SDS011;1662;49.310;8.134;2023-04-01T23:06:20;1.60;;;1.50;;
3299;SDS011;1662;49.310;8.134;2023-04-01T23:16:43;1.60;;;1.50;;
3299;SDS011;1662;49.310;8.134;2023-04-01T23:19:25;1.50;;;1.50;;
3299;SDS011;1662;49.310;8.134;2023-04-01T23:22:03;1.30;;;1.20;;
3299;SDS011;1662;49.310;8.134;2023-04-01T23:24:41;1.97;;;1.80;;
3299;SDS011;1662;49.310;8.134;2023-04-01T23:27:16;2.33;;;1.57;;
3299;SDS011;1662;49.310;8.134;2023-04-01T23:29:55;2.10;;;2.00;;
3299;SDS011;1662;49.310;8.134;2023-04-01T23:32:24;1.83;;;1.73;;
3299;SDS011;1662;49.310;8.134;2023-04-01T23:34:58;1.60;;;1.50;;
3299;SDS011;1662;49.310;8.134;2023-04-01T23:37:25;1.30;;;1.30;;
3299;SDS011;1662;49.310;8.134;2023-04-01T23:39:53;2.20;;;2.03;;
3299;SDS011;1662;49.310;8.134;2023-04-01T23:42:22;2.20;;;2.10;;
3299;SDS011;1662;49.310;8.134;2023-04-01T23:44:55;2.67;;;1.40;;
3299;SDS011;1662;49.310;8.134;2023-04-01T23:47:33;1.73;;;1.63;;
3299;SDS011;1662;49.310;8.134;2023-04-01T23:50:10;2.97;;;2.00;;
3299;SDS011;1662;49.310;8.134;2023-04-01T23:52:40;1.90;;;1.80;;
3299;SDS011;1662;49.310;8.134;2023-04-01T23:58:37;1.90;;;1.60;;
